sensor_id;sensor_type;location;lat;lon;timestamp;P1;durP1;ratioP1;P2;durP2;ratioP2
21492;SDS011;10908;50.690;4.400;2023-12-20T00:02:19;10.55;;;1.60;;
21492;SDS011;10908;50.690;4.400;2023-12-20T00:04:45;12.48;;;1.75;;
21492;SDS011;10908;50.690;4.400;2023-12-20T00:07:11;10.95;;;1.83;;
21492;SDS011;10908;50.690;4.400;2023-12-20T00:09:37;11.02;;;1.38;;
21492;SDS011;10908;50.690;4.400;2023-12-20T00:12:02;8.55;;;1.63;;
21492;SDS011;10908;50.690;4.400;2023-12-20T00:14:28;11.10;;;1.70;;
21492;SDS011;10908;50.690;4.400;2023-12-20T00:16:54;10.52;;;1.70;;
21492;SDS011;10908;50.690;4.400;2023-12-20T00:19:19;8.35;;;1.58;;
21492;SDS011;10908;50.690;4.400;2023-12-20T00:21:45;9.55;;;1.30;;
21492;SDS011;10908;50.690;4.400;2023-12-20T00:24:11;10.98;;;1.58;;
21492;SDS011;10908;50.690;4.400;2023-12-20T00:26:36;11.90;;;2.05;;
21492;SDS011;10908;50.690;4.400;2023-12-20T00:29:02;6.72;;;1.40;;
21492;SDS011;10908;50.690;4.400;2023-12-20T00:31:28;12.18;;;1.65;;
21492;SDS011;10908;50.690;4.400;2023-12-20T00:33:53;8.73;;;1.42;;
21492;SDS011;10908;50.690;4.400;2023-12-20T00:36:19;13.98;;;1.40;;
21492;SDS011;10908;50.690;4.400;2023-12-20T00:38:45;9.15;;;1.48;;
21492;SDS011;10908;50.690;4.400;2023-12-20T00:41:11;6.82;;;1.50;;
21492;SDS011;10908;50.690;4.400;2023-12-20T00:43:36;15.30;;;2.22;;
21492;SDS011;10908;50.690;4.400;2023-12-20T00:46:02;12.18;;;2.08;;
21492;SDS011;10908;50.690;4.400;2023-12-20T00:48:28;11.63;;;1.60;;
21492;SDS011;10908;50.690;4.400;2023-12-20T00:50:55;8.43;;;1.55;;
21492;SDS011;10908;50.690;4.400;2023-12-20T00:53:21;9.45;;;2.00;;
21492;SDS011;10908;50.690;4.400;2023-12-20T00:55:46;9.95;;;1.73;;
21492;SDS011;10908;50.690;4.400;2023-12-20T00:58:12;9.77;;;1.92;;
21492;SDS011;10908;50.690;4.400;2023-12-20T01:00:40;13.50;;;1.90;;
21492;SDS011;10908;50.690;4.400;2023-12-20T01:03:07;11.90;;;2.08;;
21492;SDS011;10908;50.690;4.400;2023-12-20T01:05:32;10.90;;;1.90;;
21492;SDS011;10908;50.690;4.400;2023-12-20T01:07:58;8.52;;;1.80;;
21492;SDS011;10908;50.690;4.400;2023-12-20T01:10:24;12.02;;;1.85;;
21492;SDS011;10908;50.690;4.400;2023-12-20T01:12:53;13.48;;;2.17;;
21492;SDS011;10908;50.690;4.400;2023-12-20T01:15:18;10.07;;;1.60;;
21492;SDS011;10908;50.690;4.400;2023-12-20T01:17:44;7.35;;;1.80;;
21492;SDS011;10908;50.690;4.400;2023-12-20T01:20:10;9.70;;;2.13;;
21492;SDS011;10908;50.690;4.400;2023-12-20T01:22:36;10.63;;;2.35;;
21492;SDS011;10908;50.690;4.400;2023-12-20T01:25:01;15.85;;;2.63;;
21492;SDS011;10908;50.690;4.400;2023-12-20T01:27:27;10.18;;;1.83;;
21492;SDS011;10908;50.690;4.400;2023-12-20T01:29:54;13.43;;;2.35;;
21492;SDS011;10908;50.690;4.400;2023-12-20T01:32:19;14.25;;;2.28;;
21492;SDS011;10908;50.690;4.400;2023-12-20T01:34:45;13.35;;;1.77;;
21492;SDS011;10908;50.690;4.400;2023-12-20T01:37:11;8.95;;;1.80;;
21492;SDS011;10908;50.690;4.400;2023-12-20T01:39:36;12.50;;;1.83;;
21492;SDS011;10908;50.690;4.400;2023-12-20T01:42:02;12.48;;;2.15;;
21492;SDS011;10908;50.690;4.400;2023-12-20T01:44:28;13.40;;;2.15;;
21492;SDS011;10908;50.690;4.400;2023-12-20T01:46:53;10.20;;;2.10;;
21492;SDS011;10908;50.690;4.400;2023-12-20T01:49:19;12.05;;;1.90;;
21492;SDS011;10908;50.690;4.400;2023-12-20T01:51:46;9.32;;;2.17;;
21492;SDS011;10908;50.690;4.400;2023-12-20T01:54:12;12.02;;;2.08;;
21492;SDS011;10908;50.690;4.400;2023-12-20T01:56:38;12.60;;;2.15;;
21492;SDS011;10908;50.690;4.400;2023-12-20T01:59:05;16.48;;;3.15;;
21492;SDS011;10908;50.690;4.400;2023-12-20T02:01:32;14.30;;;2.20;;
21492;SDS011;10908;50.690;4.400;2023-12-20T02:03:58;13.95;;;2.38;;
21492;SDS011;10908;50.690;4.400;2023-12-20T02:06:25;15.60;;;2.28;;
21492;SDS011;10908;50.690;4.400;2023-12-20T02:08:57;13.32;;;2.80;;
21492;SDS011;10908;50.690;4.400;2023-12-20T02:11:23;10.75;;;2.38;;
21492;SDS011;10908;50.690;4.400;2023-12-20T02:13:50;12.68;;;3.03;;
21492;SDS011;10908;50.690;4.400;2023-12-20T02:16:15;13.35;;;2.88;;
21492;SDS011;10908;50.690;4.400;2023-12-20T02:18:42;15.30;;;3.45;;
21492;SDS011;10908;50.690;4.400;2023-12-20T02:21:09;15.35;;;3.17;;
21492;SDS011;10908;50.690;4.400;2023-12-20T02:23:35;10.18;;;3.25;;
21492;SDS011;10908;50.690;4.400;2023-12-20T02:26:00;15.93;;;3.38;;
21492;SDS011;10908;50.690;4.400;2023-12-20T02:28:26;18.73;;;4.13;;
21492;SDS011;10908;50.690;4.400;2023-12-20T02:30:53;11.60;;;3.30;;
21492;SDS011;10908;50.690;4.400;2023-12-20T02:33:18;21.38;;;3.85;;
21492;SDS011;10908;50.690;4.400;2023-12-20T02:35:44;19.35;;;3.83;;
21492;SDS011;10908;50.690;4.400;2023-12-20T02:38:10;16.83;;;3.22;;
21492;SDS011;10908;50.690;4.400;2023-12-20T02:40:36;13.65;;;3.83;;
21492;SDS011;10908;50.690;4.400;2023-12-20T02:43:01;16.85;;;3.78;;
21492;SDS011;10908;50.690;4.400;2023-12-20T02:45:27;13.30;;;3.53;;
21492;SDS011;10908;50.690;4.400;2023-12-20T02:47:53;12.27;;;3.40;;
21492;SDS011;10908;50.690;4.400;2023-12-20T02:50:18;16.92;;;3.40;;
21492;SDS011;10908;50.690;4.400;2023-12-20T02:52:44;16.20;;;3.30;;
21492;SDS011;10908;50.690;4.400;2023-12-20T02:55:11;11.07;;;3.45;;
21492;SDS011;10908;50.690;4.400;2023-12-20T02:57:36;11.50;;;2.97;;
21492;SDS011;10908;50.690;4.400;2023-12-20T03:00:06;13.13;;;3.08;;
21492;SDS011;10908;50.690;4.400;2023-12-20T03:02:34;13.25;;;3.15;;
21492;SDS011;10908;50.690;4.400;2023-12-20T03:05:00;14.93;;;2.90;;
21492;SDS011;10908;50.690;4.400;2023-12-20T03:07:26;12.63;;;3.15;;
21492;SDS011;10908;50.690;4.400;2023-12-20T03:09:51;14.55;;;3.15;;
21492;SDS011;10908;50.690;4.400;2023-12-20T03:12:17;13.35;;;3.63;;
21492;SDS011;10908;50.690;4.400;2023-12-20T03:14:43;15.68;;;2.97;;
21492;SDS011;10908;50.690;4.400;2023-12-20T03:17:09;11.27;;;2.63;;
21492;SDS011;10908;50.690;4.400;2023-12-20T03:19:35;11.43;;;2.75;;
21492;SDS011;10908;50.690;4.400;2023-12-20T03:22:01;14.65;;;2.75;;
21492;SDS011;10908;50.690;4.400;2023-12-20T03:24:27;14.52;;;2.50;;
21492;SDS011;10908;50.690;4.400;2023-12-20T03:26:53;13.52;;;2.80;;
21492;SDS011;10908;50.690;4.400;2023-12-20T03:29:18;10.07;;;2.80;;
21492;SDS011;10908;50.690;4.400;2023-12-20T03:31:44;16.77;;;3.13;;
21492;SDS011;10908;50.690;4.400;2023-12-20T03:34:10;14.73;;;2.85;;
21492;SDS011;10908;50.690;4.400;2023-12-20T03:36:36;14.32;;;2.60;;
21492;SDS011;10908;50.690;4.400;2023-12-20T03:39:02;12.65;;;2.78;;
21492;SDS011;10908;50.690;4.400;2023-12-20T03:41:28;13.02;;;2.90;;
21492;SDS011;10908;50.690;4.400;2023-12-20T03:43:54;10.25;;;2.72;;
21492;SDS011;10908;50.690;4.400;2023-12-20T03:46:19;12.52;;;2.80;;
21492;SDS011;10908;50.690;4.400;2023-12-20T03:48:45;14.05;;;2.80;;
21492;SDS011;10908;50.690;4.400;2023-12-20T03:51:11;11.43;;;2.75;;
21492;SDS011;10908;50.690;4.400;2023-12-20T03:53:37;9.93;;;2.60;;
21492;SDS011;10908;50.690;4.400;2023-12-20T03:56:02;14.45;;;2.50;;
21492;SDS011;10908;50.690;4.400;2023-12-20T03:58:28;11.60;;;2.72;;
21492;SDS011;10908;50.690;4.400;2023-12-20T04:00:54;16.08;;;2.88;;
21492;SDS011;10908;50.690;4.400;2023-12-20T04:03:20;10.90;;;2.90;;
21492;SDS011;10908;50.690;4.400;2023-12-20T04:05:45;17.95;;;3.10;;
21492;SDS011;10908;50.690;4.400;2023-12-20T04:08:11;13.27;;;2.72;;
21492;SDS011;10908;50.690;4.400;2023-12-20T04:10:37;14.27;;;2.80;;
21492;SDS011;10908;50.690;4.400;2023-12-20T04:13:03;11.23;;;2.67;;
21492;SDS011;10908;50.690;4.400;2023-12-20T04:15:29;9.52;;;2.42;;
21492;SDS011;10908;50.690;4.400;2023-12-20T04:17:55;15.13;;;2.50;;
21492;SDS011;10908;50.690;4.400;2023-12-20T04:20:20;11.45;;;2.65;;
21492;SDS011;10908;50.690;4.400;2023-12-20T04:22:46;11.98;;;2.88;;
21492;SDS011;10908;50.690;4.400;2023-12-20T04:25:12;18.25;;;3.03;;
21492;SDS011;10908;50.690;4.400;2023-12-20T04:27:38;12.80;;;2.65;;
21492;SDS011;10908;50.690;4.400;2023-12-20T04:30:03;15.90;;;3.30;;
21492;SDS011;10908;50.690;4.400;2023-12-20T04:32:29;15.00;;;2.88;;
21492;SDS011;10908;50.690;4.400;2023-12-20T04:34:56;17.70;;;3.35;;
21492;SDS011;10908;50.690;4.400;2023-12-20T04:37:22;11.13;;;2.85;;
21492;SDS011;10908;50.690;4.400;2023-12-20T04:39:47;12.82;;;2.95;;
21492;SDS011;10908;50.690;4.400;2023-12-20T04:42:13;13.70;;;3.00;;
21492;SDS011;10908;50.690;4.400;2023-12-20T04:44:39;14.75;;;2.85;;
21492;SDS011;10908;50.690;4.400;2023-12-20T04:47:04;15.23;;;2.50;;
21492;SDS011;10908;50.690;4.400;2023-12-20T04:49:30;20.38;;;3.05;;
21492;SDS011;10908;50.690;4.400;2023-12-20T04:51:56;9.05;;;2.78;;
21492;SDS011;10908;50.690;4.400;2023-12-20T04:54:21;14.20;;;2.63;;
21492;SDS011;10908;50.690;4.400;2023-12-20T04:56:47;14.82;;;2.78;;
21492;SDS011;10908;50.690;4.400;2023-12-20T04:59:13;13.52;;;2.45;;
21492;SDS011;10908;50.690;4.400;2023-12-20T05:01:38;13.07;;;2.67;;
21492;SDS011;10908;50.690;4.400;2023-12-20T05:04:04;14.52;;;2.63;;
21492;SDS011;10908;50.690;4.400;2023-12-20T05:06:30;13.00;;;2.47;;
21492;SDS011;10908;50.690;4.400;2023-12-20T05:08:55;13.25;;;2.35;;
21492;SDS011;10908;50.690;4.400;2023-12-20T05:11:21;14.30;;;3.13;;
21492;SDS011;10908;50.690;4.400;2023-12-20T05:13:46;11.25;;;2.42;;
21492;SDS011;10908;50.690;4.400;2023-12-20T05:16:12;12.40;;;2.75;;
21492;SDS011;10908;50.690;4.400;2023-12-20T05:18:39;16.42;;;2.80;;
21492;SDS011;10908;50.690;4.400;2023-12-20T05:21:05;10.57;;;2.47;;
21492;SDS011;10908;50.690;4.400;2023-12-20T05:23:31;17.90;;;2.60;;
21492;SDS011;10908;50.690;4.400;2023-12-20T05:25:56;11.73;;;2.53;;
21492;SDS011;10908;50.690;4.400;2023-12-20T05:28:22;12.95;;;2.70;;
21492;SDS011;10908;50.690;4.400;2023-12-20T05:30:48;13.35;;;2.90;;
21492;SDS011;10908;50.690;4.400;2023-12-20T05:33:13;14.98;;;2.80;;
21492;SDS011;10908;50.690;4.400;2023-12-20T05:35:39;19.17;;;2.88;;
21492;SDS011;10908;50.690;4.400;2023-12-20T05:38:05;17.02;;;2.95;;
21492;SDS011;10908;50.690;4.400;2023-12-20T05:40:31;11.05;;;3.17;;
21492;SDS011;10908;50.690;4.400;2023-12-20T05:42:56;14.95;;;2.90;;
21492;SDS011;10908;50.690;4.400;2023-12-20T05:45:22;17.75;;;2.40;;
21492;SDS011;10908;50.690;4.400;2023-12-20T05:47:47;11.25;;;2.53;;
21492;SDS011;10908;50.690;4.400;2023-12-20T05:50:13;13.98;;;2.47;;
21492;SDS011;10908;50.690;4.400;2023-12-20T05:52:39;13.23;;;2.30;;
21492;SDS011;10908;50.690;4.400;2023-12-20T05:55:04;14.63;;;2.42;;
21492;SDS011;10908;50.690;4.400;2023-12-20T05:57:30;17.02;;;2.70;;
21492;SDS011;10908;50.690;4.400;2023-12-20T05:59:56;13.02;;;2.30;;
21492;SDS011;10908;50.690;4.400;2023-12-20T06:02:22;14.93;;;2.97;;
21492;SDS011;10908;50.690;4.400;2023-12-20T06:04:47;14.93;;;2.58;;
21492;SDS011;10908;50.690;4.400;2023-12-20T06:07:13;16.52;;;2.38;;
21492;SDS011;10908;50.690;4.400;2023-12-20T06:09:40;15.18;;;2.35;;
21492;SDS011;10908;50.690;4.400;2023-12-20T06:12:06;11.32;;;2.75;;
21492;SDS011;10908;50.690;4.400;2023-12-20T06:14:33;15.05;;;2.30;;
21492;SDS011;10908;50.690;4.400;2023-12-20T06:16:59;12.43;;;2.00;;
21492;SDS011;10908;50.690;4.400;2023-12-20T06:19:26;9.73;;;1.85;;
21492;SDS011;10908;50.690;4.400;2023-12-20T06:21:52;10.32;;;2.00;;
21492;SDS011;10908;50.690;4.400;2023-12-20T06:24:17;13.80;;;2.10;;
21492;SDS011;10908;50.690;4.400;2023-12-20T06:26:43;10.93;;;2.33;;
21492;SDS011;10908;50.690;4.400;2023-12-20T06:29:09;13.38;;;2.10;;
21492;SDS011;10908;50.690;4.400;2023-12-20T06:31:34;12.38;;;2.03;;
21492;SDS011;10908;50.690;4.400;2023-12-20T06:34:00;10.02;;;1.98;;
21492;SDS011;10908;50.690;4.400;2023-12-20T06:36:26;15.00;;;2.45;;
21492;SDS011;10908;50.690;4.400;2023-12-20T06:38:52;14.25;;;2.45;;
21492;SDS011;10908;50.690;4.400;2023-12-20T06:41:18;14.68;;;2.17;;
21492;SDS011;10908;50.690;4.400;2023-12-20T06:43:44;15.23;;;2.70;;
21492;SDS011;10908;50.690;4.400;2023-12-20T06:46:09;9.70;;;1.95;;
21492;SDS011;10908;50.690;4.400;2023-12-20T06:48:35;11.65;;;2.15;;
21492;SDS011;10908;50.690;4.400;2023-12-20T06:51:01;10.82;;;2.10;;
21492;SDS011;10908;50.690;4.400;2023-12-20T06:53:27;14.07;;;2.30;;
21492;SDS011;10908;50.690;4.400;2023-12-20T06:55:53;11.45;;;2.15;;
21492;SDS011;10908;50.690;4.400;2023-12-20T06:58:21;12.77;;;2.15;;
21492;SDS011;10908;50.690;4.400;2023-12-20T07:00:47;10.98;;;2.28;;
21492;SDS011;10908;50.690;4.400;2023-12-20T07:03:12;10.80;;;2.20;;
21492;SDS011;10908;50.690;4.400;2023-12-20T07:05:38;11.95;;;2.67;;
21492;SDS011;10908;50.690;4.400;2023-12-20T07:08:04;12.45;;;2.58;;
21492;SDS011;10908;50.690;4.400;2023-12-20T07:10:30;15.55;;;2.28;;
21492;SDS011;10908;50.690;4.400;2023-12-20T07:12:55;8.82;;;2.20;;
21492;SDS011;10908;50.690;4.400;2023-12-20T07:15:22;13.43;;;2.05;;
21492;SDS011;10908;50.690;4.400;2023-12-20T07:17:48;17.40;;;2.63;;
21492;SDS011;10908;50.690;4.400;2023-12-20T07:20:13;11.02;;;2.30;;
21492;SDS011;10908;50.690;4.400;2023-12-20T07:22:39;12.32;;;1.98;;
21492;SDS011;10908;50.690;4.400;2023-12-20T07:25:05;12.30;;;1.92;;
21492;SDS011;10908;50.690;4.400;2023-12-20T07:27:32;18.45;;;2.33;;
21492;SDS011;10908;50.690;4.400;2023-12-20T07:29:57;11.98;;;2.10;;
21492;SDS011;10908;50.690;4.400;2023-12-20T07:32:23;13.98;;;2.20;;
21492;SDS011;10908;50.690;4.400;2023-12-20T07:34:49;13.15;;;2.35;;
21492;SDS011;10908;50.690;4.400;2023-12-20T07:37:14;18.02;;;2.13;;
21492;SDS011;10908;50.690;4.400;2023-12-20T07:39:40;13.57;;;2.90;;
21492;SDS011;10908;50.690;4.400;2023-12-20T07:42:07;20.20;;;2.90;;
21492;SDS011;10908;50.690;4.400;2023-12-20T07:44:33;13.50;;;2.35;;
21492;SDS011;10908;50.690;4.400;2023-12-20T07:46:59;16.30;;;2.30;;
21492;SDS011;10908;50.690;4.400;2023-12-20T07:49:26;12.30;;;2.05;;
21492;SDS011;10908;50.690;4.400;2023-12-20T07:51:51;12.07;;;2.30;;
21492;SDS011;10908;50.690;4.400;2023-12-20T07:54:17;10.98;;;2.17;;
21492;SDS011;10908;50.690;4.400;2023-12-20T07:56:42;15.90;;;2.63;;
21492;SDS011;10908;50.690;4.400;2023-12-20T07:59:08;13.85;;;2.10;;
21492;SDS011;10908;50.690;4.400;2023-12-20T08:01:34;14.80;;;1.95;;
21492;SDS011;10908;50.690;4.400;2023-12-20T08:04:00;12.95;;;2.17;;
21492;SDS011;10908;50.690;4.400;2023-12-20T08:06:26;13.55;;;2.60;;
21492;SDS011;10908;50.690;4.400;2023-12-20T08:08:51;15.52;;;2.35;;
21492;SDS011;10908;50.690;4.400;2023-12-20T08:11:17;12.30;;;2.03;;
21492;SDS011;10908;50.690;4.400;2023-12-20T08:13:43;12.23;;;1.98;;
21492;SDS011;10908;50.690;4.400;2023-12-20T08:16:08;13.07;;;2.08;;
21492;SDS011;10908;50.690;4.400;2023-12-20T08:18:34;16.55;;;2.38;;
21492;SDS011;10908;50.690;4.400;2023-12-20T08:21:00;12.23;;;1.90;;
21492;SDS011;10908;50.690;4.400;2023-12-20T08:23:26;17.02;;;2.15;;
21492;SDS011;10908;50.690;4.400;2023-12-20T08:25:52;10.68;;;2.20;;
21492;SDS011;10908;50.690;4.400;2023-12-20T08:28:17;16.48;;;2.00;;
21492;SDS011;10908;50.690;4.400;2023-12-20T08:30:43;9.43;;;1.80;;
21492;SDS011;10908;50.690;4.400;2023-12-20T08:33:09;13.05;;;2.38;;
21492;SDS011;10908;50.690;4.400;2023-12-20T08:35:40;9.25;;;2.00;;
21492;SDS011;10908;50.690;4.400;2023-12-20T08:38:06;14.18;;;1.88;;
21492;SDS011;10908;50.690;4.400;2023-12-20T08:40:32;17.50;;;2.50;;
21492;SDS011;10908;50.690;4.400;2023-12-20T08:42:58;16.83;;;2.05;;
21492;SDS011;10908;50.690;4.400;2023-12-20T08:45:23;14.63;;;2.17;;
21492;SDS011;10908;50.690;4.400;2023-12-20T08:47:49;15.20;;;2.35;;
21492;SDS011;10908;50.690;4.400;2023-12-20T08:50:15;13.10;;;1.80;;
21492;SDS011;10908;50.690;4.400;2023-12-20T08:52:41;11.63;;;1.88;;
21492;SDS011;10908;50.690;4.400;2023-12-20T08:55:07;17.33;;;2.47;;
21492;SDS011;10908;50.690;4.400;2023-12-20T08:57:33;10.13;;;1.95;;
21492;SDS011;10908;50.690;4.400;2023-12-20T08:59:59;15.13;;;2.42;;
21492;SDS011;10908;50.690;4.400;2023-12-20T09:02:24;11.10;;;1.92;;
21492;SDS011;10908;50.690;4.400;2023-12-20T09:04:50;15.75;;;2.05;;
21492;SDS011;10908;50.690;4.400;2023-12-20T09:09:48;13.93;;;2.20;;
21492;SDS011;10908;50.690;4.400;2023-12-20T09:12:13;14.65;;;2.20;;
21492;SDS011;10908;50.690;4.400;2023-12-20T09:14:39;13.98;;;2.17;;
21492;SDS011;10908;50.690;4.400;2023-12-20T09:17:05;16.17;;;2.58;;
21492;SDS011;10908;50.690;4.400;2023-12-20T09:19:33;17.05;;;2.35;;
21492;SDS011;10908;50.690;4.400;2023-12-20T09:21:59;17.45;;;1.98;;
21492;SDS011;10908;50.690;4.400;2023-12-20T09:24:25;13.13;;;2.08;;
21492;SDS011;10908;50.690;4.400;2023-12-20T09:26:52;12.68;;;2.85;;
21492;SDS011;10908;50.690;4.400;2023-12-20T09:29:17;15.73;;;2.20;;
21492;SDS011;10908;50.690;4.400;2023-12-20T09:31:44;14.82;;;1.95;;
21492;SDS011;10908;50.690;4.400;2023-12-20T09:34:11;11.68;;;1.90;;
21492;SDS011;10908;50.690;4.400;2023-12-20T09:36:37;16.85;;;2.35;;
21492;SDS011;10908;50.690;4.400;2023-12-20T09:39:05;16.88;;;2.38;;
21492;SDS011;10908;50.690;4.400;2023-12-20T09:41:31;14.50;;;1.83;;
21492;SDS011;10908;50.690;4.400;2023-12-20T09:44:02;14.27;;;2.38;;
21492;SDS011;10908;50.690;4.400;2023-12-20T09:46:28;16.70;;;2.38;;
21492;SDS011;10908;50.690;4.400;2023-12-20T09:48:58;12.57;;;1.83;;
21492;SDS011;10908;50.690;4.400;2023-12-20T09:51:26;13.35;;;2.20;;
21492;SDS011;10908;50.690;4.400;2023-12-20T09:53:54;16.63;;;2.03;;
21492;SDS011;10908;50.690;4.400;2023-12-20T09:56:21;10.50;;;1.67;;
21492;SDS011;10908;50.690;4.400;2023-12-20T09:58:47;14.60;;;2.00;;
21492;SDS011;10908;50.690;4.400;2023-12-20T10:01:13;18.42;;;2.30;;
21492;SDS011;10908;50.690;4.400;2023-12-20T10:03:41;13.57;;;2.58;;
21492;SDS011;10908;50.690;4.400;2023-12-20T10:06:07;14.20;;;2.17;;
21492;SDS011;10908;50.690;4.400;2023-12-20T10:08:33;11.20;;;2.47;;
21492;SDS011;10908;50.690;4.400;2023-12-20T10:10:59;19.15;;;2.88;;
21492;SDS011;10908;50.690;4.400;2023-12-20T10:13:27;16.52;;;2.40;;
21492;SDS011;10908;50.690;4.400;2023-12-20T10:15:54;14.73;;;2.60;;
21492;SDS011;10908;50.690;4.400;2023-12-20T10:18:20;15.07;;;2.63;;
21492;SDS011;10908;50.690;4.400;2023-12-20T10:20:46;11.32;;;2.45;;
21492;SDS011;10908;50.690;4.400;2023-12-20T10:23:12;14.18;;;2.78;;
21492;SDS011;10908;50.690;4.400;2023-12-20T10:25:39;18.75;;;3.05;;
21492;SDS011;10908;50.690;4.400;2023-12-20T10:30:44;15.93;;;3.00;;
21492;SDS011;10908;50.690;4.400;2023-12-20T10:33:09;13.02;;;2.55;;
21492;SDS011;10908;50.690;4.400;2023-12-20T10:35:36;14.23;;;3.03;;
21492;SDS011;10908;50.690;4.400;2023-12-20T10:38:03;12.45;;;2.72;;
21492;SDS011;10908;50.690;4.400;2023-12-20T10:40:30;14.27;;;2.60;;
21492;SDS011;10908;50.690;4.400;2023-12-20T10:42:57;9.48;;;2.03;;
21492;SDS011;10908;50.690;4.400;2023-12-20T10:45:24;15.93;;;2.42;;
21492;SDS011;10908;50.690;4.400;2023-12-20T10:47:50;11.15;;;2.47;;
21492;SDS011;10908;50.690;4.400;2023-12-20T10:50:17;14.82;;;2.38;;
21492;SDS011;10908;50.690;4.400;2023-12-20T10:52:45;17.52;;;2.20;;
21492;SDS011;10908;50.690;4.400;2023-12-20T10:55:11;15.27;;;1.88;;
21492;SDS011;10908;50.690;4.400;2023-12-20T10:57:37;11.43;;;2.25;;
21492;SDS011;10908;50.690;4.400;2023-12-20T11:00:04;11.15;;;2.35;;
21492;SDS011;10908;50.690;4.400;2023-12-20T11:02:34;16.70;;;2.15;;
21492;SDS011;10908;50.690;4.400;2023-12-20T11:07:52;17.55;;;2.65;;
21492;SDS011;10908;50.690;4.400;2023-12-20T11:10:31;11.07;;;2.53;;
21492;SDS011;10908;50.690;4.400;2023-12-20T11:13:23;13.38;;;2.55;;
21492;SDS011;10908;50.690;4.400;2023-12-20T11:15:53;13.38;;;2.38;;
21492;SDS011;10908;50.690;4.400;2023-12-20T11:18:19;25.65;;;2.65;;
21492;SDS011;10908;50.690;4.400;2023-12-20T11:20:45;13.07;;;2.38;;
21492;SDS011;10908;50.690;4.400;2023-12-20T11:23:11;17.92;;;2.53;;
21492;SDS011;10908;50.690;4.400;2023-12-20T11:25:46;12.98;;;2.33;;
21492;SDS011;10908;50.690;4.400;2023-12-20T11:28:13;11.73;;;2.35;;
21492;SDS011;10908;50.690;4.400;2023-12-20T11:30:42;16.42;;;2.13;;
21492;SDS011;10908;50.690;4.400;2023-12-20T11:33:15;12.88;;;2.40;;
21492;SDS011;10908;50.690;4.400;2023-12-20T11:35:41;18.77;;;2.65;;
21492;SDS011;10908;50.690;4.400;2023-12-20T11:38:10;12.02;;;2.45;;
21492;SDS011;10908;50.690;4.400;2023-12-20T11:40:36;15.43;;;2.67;;
21492;SDS011;10908;50.690;4.400;2023-12-20T11:43:03;15.23;;;2.88;;
21492;SDS011;10908;50.690;4.400;2023-12-20T11:45:31;12.70;;;2.30;;
21492;SDS011;10908;50.690;4.400;2023-12-20T11:47:57;15.70;;;2.80;;
21492;SDS011;10908;50.690;4.400;2023-12-20T11:50:24;12.23;;;1.98;;
21492;SDS011;10908;50.690;4.400;2023-12-20T11:52:51;13.18;;;2.30;;
21492;SDS011;10908;50.690;4.400;2023-12-20T11:55:18;10.80;;;2.50;;
21492;SDS011;10908;50.690;4.400;2023-12-20T11:57:44;10.43;;;2.03;;
21492;SDS011;10908;50.690;4.400;2023-12-20T12:00:13;13.48;;;2.30;;
21492;SDS011;10908;50.690;4.400;2023-12-20T12:02:39;15.02;;;2.83;;
21492;SDS011;10908;50.690;4.400;2023-12-20T12:05:06;11.93;;;2.30;;
21492;SDS011;10908;50.690;4.400;2023-12-20T12:07:33;12.32;;;2.30;;
21492;SDS011;10908;50.690;4.400;2023-12-20T12:10:00;14.32;;;2.00;;
21492;SDS011;10908;50.690;4.400;2023-12-20T12:12:25;17.65;;;2.50;;
21492;SDS011;10908;50.690;4.400;2023-12-20T12:14:52;17.50;;;2.30;;
21492;SDS011;10908;50.690;4.400;2023-12-20T12:17:19;14.18;;;2.92;;
21492;SDS011;10908;50.690;4.400;2023-12-20T12:19:45;13.50;;;2.70;;
21492;SDS011;10908;50.690;4.400;2023-12-20T12:22:12;12.15;;;2.10;;
21492;SDS011;10908;50.690;4.400;2023-12-20T12:24:44;19.35;;;2.28;;
21492;SDS011;10908;50.690;4.400;2023-12-20T12:27:12;17.13;;;2.70;;
21492;SDS011;10908;50.690;4.400;2023-12-20T12:29:38;15.48;;;2.50;;
21492;SDS011;10908;50.690;4.400;2023-12-20T12:32:08;17.88;;;3.05;;
21492;SDS011;10908;50.690;4.400;2023-12-20T12:34:34;14.82;;;2.53;;
21492;SDS011;10908;50.690;4.400;2023-12-20T12:37:00;13.20;;;2.55;;
21492;SDS011;10908;50.690;4.400;2023-12-20T12:39:26;21.33;;;3.97;;
21492;SDS011;10908;50.690;4.400;2023-12-20T12:41:55;20.80;;;3.10;;
21492;SDS011;10908;50.690;4.400;2023-12-20T12:44:22;17.17;;;2.75;;
21492;SDS011;10908;50.690;4.400;2023-12-20T12:46:50;12.48;;;3.42;;
21492;SDS011;10908;50.690;4.400;2023-12-20T12:49:16;16.88;;;3.88;;
21492;SDS011;10908;50.690;4.400;2023-12-20T12:51:42;19.35;;;3.42;;
21492;SDS011;10908;50.690;4.400;2023-12-20T12:54:08;13.75;;;3.80;;
21492;SDS011;10908;50.690;4.400;2023-12-20T12:56:35;18.00;;;4.07;;
21492;SDS011;10908;50.690;4.400;2023-12-20T12:59:01;19.80;;;4.90;;
21492;SDS011;10908;50.690;4.400;2023-12-20T13:01:27;18.20;;;3.63;;
21492;SDS011;10908;50.690;4.400;2023-12-20T13:03:53;14.10;;;4.03;;
21492;SDS011;10908;50.690;4.400;2023-12-20T13:06:19;18.38;;;4.22;;
21492;SDS011;10908;50.690;4.400;2023-12-20T13:08:45;15.68;;;3.42;;
21492;SDS011;10908;50.690;4.400;2023-12-20T13:11:11;15.02;;;3.42;;
21492;SDS011;10908;50.690;4.400;2023-12-20T13:13:36;13.73;;;3.63;;
21492;SDS011;10908;50.690;4.400;2023-12-20T13:16:03;13.32;;;4.15;;
21492;SDS011;10908;50.690;4.400;2023-12-20T13:18:29;17.35;;;2.85;;
21492;SDS011;10908;50.690;4.400;2023-12-20T13:20:55;20.23;;;3.67;;
21492;SDS011;10908;50.690;4.400;2023-12-20T13:23:21;17.33;;;2.80;;
21492;SDS011;10908;50.690;4.400;2023-12-20T13:25:46;13.15;;;2.85;;
21492;SDS011;10908;50.690;4.400;2023-12-20T13:28:12;14.52;;;2.60;;
21492;SDS011;10908;50.690;4.400;2023-12-20T13:30:38;12.68;;;3.03;;
21492;SDS011;10908;50.690;4.400;2023-12-20T13:33:05;16.52;;;3.15;;
21492;SDS011;10908;50.690;4.400;2023-12-20T13:35:31;20.65;;;3.30;;
21492;SDS011;10908;50.690;4.400;2023-12-20T13:37:58;22.58;;;3.00;;
21492;SDS011;10908;50.690;4.400;2023-12-20T13:40:24;17.65;;;3.50;;
21492;SDS011;10908;50.690;4.400;2023-12-20T13:42:50;16.95;;;2.63;;
21492;SDS011;10908;50.690;4.400;2023-12-20T13:45:16;14.00;;;2.42;;
21492;SDS011;10908;50.690;4.400;2023-12-20T13:47:42;12.25;;;2.20;;
21492;SDS011;10908;50.690;4.400;2023-12-20T13:50:08;16.70;;;3.22;;
21492;SDS011;10908;50.690;4.400;2023-12-20T13:52:34;16.88;;;3.50;;
21492;SDS011;10908;50.690;4.400;2023-12-20T13:55:00;22.45;;;3.33;;
21492;SDS011;10908;50.690;4.400;2023-12-20T13:57:26;23.27;;;3.47;;
21492;SDS011;10908;50.690;4.400;2023-12-20T13:59:54;14.70;;;3.05;;
21492;SDS011;10908;50.690;4.400;2023-12-20T14:02:22;18.80;;;3.30;;
21492;SDS011;10908;50.690;4.400;2023-12-20T14:04:48;13.68;;;2.90;;
21492;SDS011;10908;50.690;4.400;2023-12-20T14:07:14;18.23;;;5.03;;
21492;SDS011;10908;50.690;4.400;2023-12-20T14:09:40;15.55;;;3.53;;
21492;SDS011;10908;50.690;4.400;2023-12-20T14:12:10;13.77;;;3.17;;
21492;SDS011;10908;50.690;4.400;2023-12-20T14:14:37;15.68;;;3.10;;
21492;SDS011;10908;50.690;4.400;2023-12-20T14:17:03;11.15;;;2.60;;
21492;SDS011;10908;50.690;4.400;2023-12-20T14:19:29;17.45;;;3.03;;
21492;SDS011;10908;50.690;4.400;2023-12-20T14:21:55;16.10;;;2.97;;
21492;SDS011;10908;50.690;4.400;2023-12-20T14:24:20;16.70;;;3.33;;
21492;SDS011;10908;50.690;4.400;2023-12-20T14:26:46;16.55;;;3.03;;
21492;SDS011;10908;50.690;4.400;2023-12-20T14:29:12;12.93;;;3.25;;
21492;SDS011;10908;50.690;4.400;2023-12-20T14:31:38;15.43;;;2.63;;
21492;SDS011;10908;50.690;4.400;2023-12-20T14:34:04;18.45;;;3.00;;
21492;SDS011;10908;50.690;4.400;2023-12-20T14:36:30;18.90;;;3.25;;
21492;SDS011;10908;50.690;4.400;2023-12-20T14:38:58;18.02;;;3.33;;